Latest Weather Observations for Mount Magnet Airport

IDW60801

Issued at 8:05 pm WST Thursday 30 October 2014 (issued every 30 minutes, with the page automatically refreshed every 10 minutes)

About weather observations | Map of weather stations | Latest weather observations for WA | Other Formats
Station Details ID: 007600 Name: MOUNT MAGNET AERO Lat: -28.12 Lon: 117.84 Height: 407.0 m
Data from the previous 72 hours. | See also: Recent months at Mount Magnet Airport
Date/Time
WST
Temp
°C
App
Temp
°C
Dew
Point
Rel
Hum
%
Delta-T
°C
Wind Press
QNH
hPa
Press
MSL
hPa
Rain
since 9 am
mm
Dir
 
Spd
km/h
Gust
km/h
Spd
kts
Gust
kts
30/08:00pm 27.9 21.9 7.2 27 11.3 SW 28 39 15 21 1012.5 1010.7 0.0
30/07:30pm 28.6 24.2 6.7 25 11.9 WSW 19 28 10 15 1012.1 1010.3 0.0
30/07:00pm 29.2 23.5 6.6 24 12.3 WSW 26 35 14 19 1011.7 1009.9 0.0
30/06:30pm 29.9 24.5 6.5 23 12.7 WSW 24 35 13 19 1011.2 1009.5 0.0
30/06:00pm 30.7 24.4 5.9 21 13.4 W 28 35 15 19 1010.9 1009.2 0.0
30/05:30pm 31.5 25.1 5.1 19 14.1 WSW 28 39 15 21 1010.7 1008.9 0.0
30/05:00pm 31.9 25.5 5.4 19 14.3 W 28 41 15 22 1010.4 1008.6 0.0
30/04:30pm 32.1 26.0 4.8 18 14.6 WSW 26 39 14 21 1010.3 1008.5 0.0
30/04:00pm 32.8 25.5 4.6 17 15.1 W 32 44 17 24 1010.4 1008.6 0.0
30/03:53pm 33.1 26.4 3.9 16 15.5 W 28 46 15 25 1010.3 1008.5 0.0
30/03:30pm 33.0 26.9 4.7 17 15.2 W 26 44 14 24 1010.4 1008.6 0.0
30/03:13pm 33.5 26.9 4.2 16 15.6 W 28 50 15 27 1010.4 1008.6 0.0
30/03:00pm 33.4 27.6 4.2 16 15.6 W 24 37 13 20 1010.4 1008.6 0.0
30/02:30pm 33.3 27.6 5.0 17 15.3 W 24 37 13 20 1010.7 1008.9 0.0
30/02:23pm 33.0 26.8 6.3 19 14.7 NW 28 57 15 31 1010.4 1008.6 0.0
30/02:00pm 32.3 26.8 5.7 19 14.5 W 24 37 13 20 1010.9 1009.2 0.0
30/01:30pm 32.1 27.6 7.0 21 13.9 W 20 39 11 21 1011.6 1009.8 0.0
30/01:00pm 31.7 27.1 6.7 21 13.8 W 20 50 11 27 1011.9 1010.1 0.0
30/12:30pm 31.7 27.9 7.4 22 13.5 WNW 17 28 9 15 1012.3 1010.5 0.0
30/12:00pm 30.1 26.0 8.5 26 12.1 W 20 30 11 16 1012.5 1010.7 0.0
30/11:30am 29.6 27.1 11.2 32 10.8 WNW 15 20 8 11 1013.0 1011.3 0.0
30/11:00am 28.6 26.8 12.1 36 9.8 WNW 13 20 7 11 1013.4 1011.7 0.0
30/10:30am 27.1 25.9 12.7 41 8.5 WSW 11 17 6 9 1014.0 1012.2 0.0
30/10:00am 25.2 23.2 12.8 46 7.3 WSW 15 22 8 12 1014.3 1012.5 0.0
30/09:30am 23.6 21.4 13.2 52 6.1 WSW 17 20 9 11 1014.7 1012.9 0.0
30/09:00am 22.4 20.7 13.5 57 5.2 WSW 15 20 8 11 1014.9 1013.1 0.0
30/08:30am 21.3 19.6 13.7 62 4.5 WSW 15 20 8 11 1014.9 1013.1 0.0
30/08:00am 20.1 18.1 13.8 67 3.7 SW 17 20 9 11 1014.9 1013.1 0.0
30/07:30am 18.9 16.8 13.5 71 3.1 SW 17 22 9 12 1014.9 1013.1 0.0
30/07:00am 18.8 16.4 13.9 73 2.9 SW 19 24 10 13 1014.9 1013.1 0.0
30/06:30am 17.7 15.2 13.6 77 2.4 WSW 19 24 10 13 1014.6 1012.8 0.0
30/06:00am 17.8 15.7 13.7 77 2.4 WSW 17 22 9 12 1014.3 1012.5 0.0
30/05:30am 17.7 15.1 13.8 78 2.3 WSW 20 28 11 15 1014.0 1012.2 0.0
30/05:00am 18.3 15.4 14.0 76 2.5 WSW 22 28 12 15 1013.5 1011.8 0.0
30/04:30am 19.0 15.6 13.8 72 3.0 WSW 24 32 13 17 1013.3 1011.6 0.0
30/04:00am 19.6 16.2 13.8 69 3.4 WSW 24 30 13 16 1013.0 1011.3 0.0
30/03:30am 20.6 18.0 13.3 63 4.3 W 19 22 10 12 1012.9 1011.1 0.0
30/03:00am 21.4 19.1 13.1 59 4.8 WSW 17 22 9 12 1012.9 1011.1 0.0
30/02:30am 21.8 19.5 12.9 57 5.2 WSW 17 20 9 11 1012.8 1011.0 0.0
30/02:00am 22.4 20.4 12.6 54 5.7 WSW 15 20 8 11 1012.9 1011.1 0.0
30/01:30am 23.2 21.9 12.5 51 6.2 WSW 11 13 6 7 1013.0 1011.3 0.0
30/01:00am 24.0 21.9 12.3 48 6.8 WSW 15 20 8 11 1012.8 1011.0 0.0
30/12:30am 24.7 22.5 12.0 45 7.4 WSW 15 20 8 11 1012.9 1011.1 0.0
30/12:00am 25.4 22.4 11.9 43 7.8 WSW 19 24 10 13 1012.9 1011.1 0.0
 
Date/Time
WST
Temp
°C
App
Temp
°C
Dew
Point
Rel
Hum
%
Delta-T
°C
Wind Press
QNH
hPa
Press
MSL
hPa
Rain
since 9 am
mm
Dir
 
Spd
km/h
Gust
km/h
Spd
kts
Gust
kts
29/11:30pm 26.2 22.9 11.5 40 8.5 WSW 20 28 11 15 1013.0 1011.3 0.0
29/11:00pm 26.8 22.3 11.3 38 9.0 WSW 26 35 14 19 1013.0 1011.3 0.0
29/10:30pm 27.5 23.0 10.2 34 9.9 WSW 24 33 13 18 1012.9 1011.1 0.0
29/10:00pm 28.3 23.6 9.1 30 10.8 WSW 24 33 13 18 1012.8 1011.0 0.0
29/09:30pm 28.9 23.9 8.0 27 11.6 W 24 32 13 17 1012.7 1010.9 0.0
29/09:00pm 29.6 26.2 9.2 28 11.6 W 17 24 9 13 1012.5 1010.7 0.0
29/08:30pm 29.7 26.8 8.2 26 12.0 WNW 13 15 7 8 1012.3 1010.5 0.0
29/08:00pm 30.3 27.6 7.5 24 12.6 WNW 11 13 6 7 1012.0 1010.2 0.0
29/07:30pm 30.7 27.6 7.2 23 13.0 WNW 13 15 7 8 1011.9 1010.1 0.0
29/07:00pm 31.4 29.0 7.1 22 13.4 NW 9 13 5 7 1011.4 1009.6 0.0
29/06:30pm 31.8 29.0 6.8 21 13.8 NNW 11 15 6 8 1011.2 1009.5 0.0
29/06:00pm 32.0 29.2 7.0 21 13.9 N 11 15 6 8 1011.0 1009.3 0.0
29/05:30pm 32.3 29.6 7.2 21 14.0 NNW 11 15 6 8 1010.9 1009.2 0.0
29/05:00pm 32.7 26.0 7.5 21 14.1 N 32 44 17 24 1011.0 1009.3 0.0
29/04:46pm 33.7 26.3 6.9 19 14.9 N 35 54 19 29 1011.0 1009.3 0.0
29/04:30pm 34.0 25.7 6.3 18 15.3 N 39 50 21 27 1011.5 1009.7 0.0
29/04:23pm 34.3 25.2 5.8 17 15.7 NNW 43 50 23 27 1011.6 1009.8 0.0
29/04:00pm 33.6 28.0 5.2 17 15.4 NNE 24 39 13 21 1011.0 1009.3 0.0
29/03:30pm 34.9 29.1 4.4 15 16.4 W 24 32 13 17 1010.3 1008.5 0.0
29/03:00pm 34.8 27.9 4.4 15 16.4 WSW 30 39 16 21 1010.0 1008.2 0.0
29/02:30pm 36.2 31.4 5.5 15 16.9 SSW 20 30 11 16 1010.2 1008.4 0.0
29/02:00pm 36.2 31.8 6.4 16 16.7 SW 19 28 10 15 1010.3 1008.5 0.0
29/01:30pm 36.3 33.2 5.5 15 17.0 SSW 11 19 6 10 1010.4 1008.6 0.0
29/01:00pm 35.1 32.6 6.4 17 16.0 WSW 9 15 5 8 1011.1 1009.4 0.0
29/12:30pm 34.2 31.1 5.7 17 15.6 N 11 15 6 8 1011.7 1009.9 0.0
29/12:00pm 33.9 30.6 6.3 18 15.3 NNE 13 17 7 9 1011.8 1010.0 0.0
29/11:30am 33.5 30.1 5.9 18 15.1 ENE 13 17 7 9 1012.1 1010.3 0.0
29/11:00am 32.7 30.5 6.1 19 14.6 ENE 7 13 4 7 1012.5 1010.7 0.0
29/10:30am 32.0 30.4 6.2 20 14.1 SSW 4 11 2 6 1012.4 1010.6 0.0
29/10:00am 31.1 28.5 6.2 21 13.5 SSW 9 13 5 7 1012.7 1010.9 0.0
29/09:30am 30.1 26.7 6.1 22 13.0 SW 13 15 7 8 1012.6 1010.8 0.0
29/09:00am 29.6 25.9 6.3 23 12.6 W 15 17 8 9 1013.0 1011.3 0.0
29/08:30am 28.7 25.7 6.1 24 12.1 WSW 11 13 6 7 1012.7 1010.9 0.0
29/08:00am 27.7 25.4 5.9 25 11.6 S 7 11 4 6 1012.4 1010.6 0.0
29/07:30am 27.2 24.6 6.0 26 11.2 S 9 13 5 7 1012.0 1010.2 0.0
29/07:00am 25.9 23.3 6.0 28 10.5 WSW 9 13 5 7 1012.3 1010.5 0.0
29/06:30am 24.3 22.9 5.6 30 9.7 NE 2 7 1 4 1012.2 1010.4 0.0
29/06:00am 23.5 20.8 5.4 31 9.3 WSW 9 13 5 7 1012.2 1010.4 0.0
29/05:30am 23.6 21.8 5.5 31 9.3 SSW 4 9 2 5 1011.9 1010.1 0.0
29/05:00am 23.6 21.4 5.5 31 9.3 SSW 6 7 3 4 1011.8 1010.0 0.0
29/04:30am 24.2 22.7 5.1 29 9.8 W 2 6 1 3 1011.6 1009.8 0.0
29/04:00am 25.2 23.0 5.4 28 10.3 WSW 6 9 3 5 1011.8 1010.0 0.0
29/03:30am 25.1 21.9 5.3 28 10.2 WSW 11 15 6 8 1011.6 1009.8 0.0
29/03:00am 25.9 22.8 5.5 27 10.7 SW 11 11 6 6 1011.6 1009.8 0.0
29/02:30am 26.5 24.2 5.5 26 11.0 WSW 7 11 4 6 1011.9 1010.1 0.0
29/02:00am 27.1 24.4 5.4 25 11.4 SW 9 13 5 7 1011.7 1009.9 0.0
29/01:30am 27.9 25.7 5.5 24 11.8 WSW 6 9 3 5 1011.7 1009.9 0.0
29/01:00am 28.1 25.6 5.0 23 12.1 WSW 7 13 4 7 1012.2 1010.4 0.0
29/12:30am 28.6 25.1 5.5 23 12.2 SW 13 17 7 9 1012.1 1010.3 0.0
29/12:00am 28.7 25.2 5.5 23 12.3 W 13 15 7 8 1012.8 1011.0 0.0
 
Date/Time
WST
Temp
°C
App
Temp
°C
Dew
Point
Rel
Hum
%
Delta-T
°C
Wind Press
QNH
hPa
Press
MSL
hPa
Rain
since 9 am
mm
Dir
 
Spd
km/h
Gust
km/h
Spd
kts
Gust
kts
28/11:30pm 28.9 26.6 5.7 23 12.4 SE 7 13 4 7 1012.7 1010.9 0.0
28/11:00pm 29.5 26.8 5.6 22 12.8 SSE 9 11 5 6 1012.7 1010.9 0.0
28/10:30pm 30.0 27.8 6.0 22 12.9 S 7 11 4 6 1012.7 1010.9 0.0
28/10:00pm 31.0 27.9 5.4 20 13.7 SSW 11 17 6 9 1012.4 1010.6 0.0
28/09:30pm 31.6 27.8 5.9 20 13.9 SSW 15 20 8 11 1012.2 1010.4 0.0
28/09:00pm 31.3 28.2 5.7 20 13.8 S 11 15 6 8 1012.2 1010.4 0.0
28/08:30pm 32.2 29.1 5.7 19 14.4 S 11 13 6 7 1012.1 1010.3 0.0
28/08:00pm 33.3 31.0 5.8 18 15.0 ESE 7 13 4 7 1011.8 1010.0 0.0
28/07:30pm 32.8 31.8 5.4 18 14.8 CALM 0 0 0 0 1011.6 1009.8 0.0
28/07:00pm 33.3 31.0 5.8 18 15.0 NNE 7 9 4 5 1011.4 1009.6 0.0
28/06:30pm 34.3 31.1 4.9 16 15.9 NW 11 19 6 10 1011.6 1009.8 0.0
28/06:00pm 34.6 28.2 5.1 16 16.1 NW 28 54 15 29 1011.6 1009.8 0.0
28/05:30pm 34.8 32.6 5.3 16 16.1 N 6 7 3 4 1011.1 1009.4 0.0
28/05:00pm 35.1 32.4 5.5 16 16.3 NNE 9 13 5 7 1010.8 1009.1 0.0
28/04:30pm 35.1 32.9 5.5 16 16.3 N 6 11 3 6 1010.9 1009.2 0.0
28/04:00pm 35.2 32.5 5.6 16 16.3 NNW 9 13 5 7 1010.9 1009.2 0.0
28/03:30pm 34.9 31.8 5.4 16 16.2 NNE 11 17 6 9 1011.1 1009.4 0.0
28/03:00pm 36.1 32.6 5.4 15 16.9 N 13 20 7 11 1011.5 1009.7 0.0
28/02:30pm 36.0 32.3 6.2 16 16.6 NE 15 20 8 11 1011.6 1009.8 0.0
28/02:00pm 36.0 31.1 5.3 15 16.9 NNE 20 30 11 16 1012.0 1010.2 0.0
28/01:30pm 35.9 31.8 6.2 16 16.5 NNW 17 22 9 12 1012.2 1010.4 0.0
28/01:00pm 35.5 30.9 5.8 16 16.4 NNE 19 35 10 19 1012.7 1010.9 0.0
28/12:30pm 35.3 30.7 6.6 17 16.0 NE 20 28 11 15 1013.1 1011.4 0.0
28/12:00pm 34.2 29.8 6.5 18 15.4 NNE 19 28 10 15 1013.6 1011.9 0.0
28/11:30am 33.5 28.9 6.7 19 14.9 NNE 20 32 11 17 1014.0 1012.2 0.0
28/11:00am 32.9 28.2 6.2 19 14.7 NE 20 26 11 14 1014.6 1012.8 0.0
28/10:30am 31.8 26.0 6.1 20 14.0 NE 26 32 14 17 1015.1 1013.3 0.0
28/10:00am 31.9 25.7 6.2 20 14.0 NE 28 39 15 21 1015.5 1013.8 0.0
28/09:30am 31.3 25.2 6.4 21 13.6 NE 28 41 15 22 1015.8 1014.1 0.0
28/09:00am 29.9 23.6 5.9 22 12.9 NE 28 37 15 20 1015.9 1014.2 0.0
28/08:30am 29.3 23.4 6.0 23 12.5 NE 26 37 14 20 1015.9 1014.2 0.0
28/08:00am 27.8 22.3 6.0 25 11.6 ENE 24 33 13 18 1015.7 1014.0 0.0
28/07:30am 26.8 21.6 5.7 26 11.1 NE 22 33 12 18 1015.7 1014.0 0.0
28/07:00am 25.4 20.5 5.1 27 10.5 ENE 20 28 11 15 1015.5 1013.8 0.0
28/06:30am 24.2 19.9 5.1 29 9.8 E 17 24 9 13 1015.5 1013.8 0.0
28/06:00am 23.2 19.5 4.7 30 9.4 ENE 13 19 7 10 1015.5 1013.8 0.0
28/05:30am 20.5 17.5 4.1 34 8.1 E 9 13 5 7 1015.4 1013.7 0.0
28/05:00am 20.1 17.4 3.8 34 7.9 E 7 9 4 5 1015.2 1013.5 0.0
28/04:30am 20.6 17.9 3.8 33 8.2 E 7 9 4 5 1015.2 1013.5 0.0
28/04:00am 20.7 17.6 3.4 32 8.4 ENE 9 11 5 6 1015.0 1013.2 0.0
28/03:30am 20.9 17.8 3.6 32 8.4 E 9 13 5 7 1015.1 1013.3 0.0
28/03:00am 20.4 16.8 3.2 32 8.3 E 11 11 6 6 1014.8 1013.0 0.0
28/02:30am 20.8 17.6 3.1 31 8.5 E 9 11 5 6 1014.7 1012.9 0.0
28/02:00am 21.1 17.9 2.9 30 8.8 E 9 11 5 6 1014.6 1012.8 0.0
28/01:30am 21.4 18.7 2.6 29 9.0 ESE 6 7 3 4 1014.7 1012.9 0.0
28/01:00am 21.3 17.9 2.1 28 9.1 E 9 9 5 5 1014.8 1013.0 0.0
28/12:30am 21.3 18.2 1.6 27 9.3 E 7 11 4 6 1015.2 1013.5 0.0
28/12:00am 22.2 19.3 1.3 25 9.8 ESE 6 7 3 4 1015.5 1013.8 0.0
 
Date/Time
WST
Temp
°C
App
Temp
°C
Dew
Point
Rel
Hum
%
Delta-T
°C
Wind Press
QNH
hPa
Press
MSL
hPa
Rain
since 9 am
mm
Dir
 
Spd
km/h
Gust
km/h
Spd
kts
Gust
kts
27/11:30pm 22.5 19.6 1.5 25 10.0 E 6 6 3 3 1015.8 1014.1 0.0
27/11:00pm 23.0 19.9 1.4 24 10.3 E 7 9 4 5 1016.0 1014.3 0.0
27/10:30pm 23.4 19.9 1.1 23 10.6 ESE 9 9 5 5 1016.2 1014.5 0.0
27/10:00pm 23.9 20.7 0.9 22 10.9 E 7 9 4 5 1016.4 1014.7 0.0
27/09:30pm 25.0 21.8 0.5 20 11.6 ESE 7 9 4 5 1016.6 1014.8 0.0
27/09:00pm 25.8 21.9 1.2 20 11.9 SE 11 13 6 7 1016.6 1014.8 0.0
27/08:30pm 26.3 22.7 0.9 19 12.2 SE 9 11 5 6 1016.6 1014.8 0.0

Other Formats:

Comma delimited format used in spreadsheet applications
http://www.bom.gov.au/fwo/IDW60801/IDW60801.94429.axf

JavaScript Object Notation format (JSON) in row-major order
http://www.bom.gov.au/fwo/IDW60801/IDW60801.94429.json